createdAt,value
2023-01-19T00:00:56.970Z,99.99
2023-01-19T00:03:59.446Z,99.99
2023-01-19T00:07:05.236Z,99.99
2023-01-19T00:10:09.066Z,99.99
2023-01-19T00:13:11.833Z,99.99
2023-01-19T00:16:17.510Z,99.99
2023-01-19T00:19:19.843Z,99.53
2023-01-19T00:22:22.314Z,99.55
2023-01-19T00:25:26.801Z,99.42
2023-01-19T00:28:29.057Z,99.94
2023-01-19T00:31:34.095Z,99.99
2023-01-19T00:34:42.641Z,99.99
2023-01-19T00:37:46.186Z,99.99
2023-01-19T00:40:48.989Z,99.99
2023-01-19T00:43:51.257Z,99.99
2023-01-19T00:46:53.483Z,99.99
2023-01-19T00:49:55.954Z,99.99
2023-01-19T00:53:01.468Z,99.99
2023-01-19T00:56:04.021Z,99.99
2023-01-19T00:59:06.249Z,99.99
2023-01-19T01:02:08.812Z,99.99
2023-01-19T01:05:12.012Z,99.98
2023-01-19T01:08:14.206Z,99.84
2023-01-19T01:11:16.441Z,99.99
2023-01-19T01:14:19.415Z,99.99
2023-01-19T01:17:24.939Z,99.99
2023-01-19T01:20:30.315Z,99.99
2023-01-19T01:23:33.325Z,99.99
2023-01-19T01:26:35.734Z,99.99
2023-01-19T01:29:39.725Z,99.99
2023-01-19T01:32:42.435Z,99.99
2023-01-19T01:35:44.665Z,99.99
2023-01-19T01:38:46.945Z,99.99
2023-01-19T01:41:49.561Z,99.99
2023-01-19T01:45:02.479Z,99.99
2023-01-19T01:48:15.952Z,99.99
2023-01-19T01:51:39.273Z,99.94
2023-01-19T01:54:42.433Z,99.85
2023-01-19T01:57:49.922Z,99.99
2023-01-19T02:01:10.386Z,99.89
2023-01-19T02:04:12.658Z,99.58
2023-01-19T02:07:39.197Z,99.65
2023-01-19T02:11:01.170Z,99.86
2023-01-19T02:14:05.270Z,99.99
2023-01-19T02:17:07.838Z,99.99
2023-01-19T02:20:10.734Z,99.99
2023-01-19T02:23:20.591Z,99.99
2023-01-19T02:26:26.965Z,99.76
2023-01-19T02:29:29.369Z,99.66
2023-01-19T02:32:31.641Z,99.99
2023-01-19T02:35:35.628Z,99.96
2023-01-19T02:38:40.432Z,99.99
2023-01-19T02:41:46.411Z,99.99
2023-01-19T02:44:51.672Z,99.73
2023-01-19T02:47:53.986Z,99.79
2023-01-19T02:51:04.304Z,99.76
2023-01-19T02:54:34.833Z,99.69
2023-01-19T02:57:40.033Z,99.62
2023-01-19T03:00:52.451Z,99.67
2023-01-19T03:04:00.876Z,99.86
2023-01-19T03:07:14.404Z,99.71
2023-01-19T03:10:47.317Z,99.49
2023-01-19T03:13:54.133Z,99.33
2023-01-19T03:17:05.014Z,99.19
2023-01-19T03:20:08.637Z,99.16
2023-01-19T03:23:13.653Z,99.53
2023-01-19T03:26:21.440Z,99.18
2023-01-19T03:29:26.612Z,99.00
2023-01-19T03:32:35.632Z,98.85
2023-01-19T03:35:43.427Z,98.87
2023-01-19T03:38:48.596Z,98.89
2023-01-19T03:41:57.399Z,99.39
2023-01-19T03:45:01.662Z,99.22
2023-01-19T03:48:05.230Z,99.19
2023-01-19T03:51:09.909Z,99.17
2023-01-19T03:54:12.264Z,99.21
2023-01-19T03:57:14.508Z,99.27
2023-01-19T04:00:16.985Z,99.17
2023-01-19T04:03:19.815Z,99.30
2023-01-19T04:06:22.295Z,99.37
2023-01-19T04:09:25.751Z,99.27
2023-01-19T04:12:27.992Z,99.85
2023-01-19T04:15:31.544Z,99.47
2023-01-19T04:18:34.887Z,99.81
2023-01-19T04:21:37.169Z,99.60
2023-01-19T04:24:39.359Z,99.59
2023-01-19T04:27:41.980Z,99.39
2023-01-19T04:30:44.173Z,99.23
2023-01-19T04:33:46.462Z,99.27
2023-01-19T04:36:51.131Z,99.50
2023-01-19T04:39:53.368Z,99.72
2023-01-19T04:42:55.590Z,99.45
2023-01-19T04:45:57.885Z,99.42
2023-01-19T04:49:00.432Z,99.24
2023-01-19T04:52:06.239Z,99.39
2023-01-19T04:55:09.153Z,98.93
2023-01-19T04:58:11.382Z,98.66
2023-01-19T05:01:13.630Z,98.75
2023-01-19T05:04:16.186Z,98.31
2023-01-19T05:07:18.491Z,98.81
2023-01-19T05:10:20.776Z,99.18
2023-01-19T05:13:23.085Z,99.36
2023-01-19T05:16:25.406Z,99.42
2023-01-19T05:19:27.599Z,99.31
2023-01-19T05:22:29.978Z,99.01
2023-01-19T05:25:32.351Z,99.02
2023-01-19T05:28:34.833Z,98.93
2023-01-19T05:31:37.397Z,98.55
2023-01-19T05:34:39.688Z,98.61
2023-01-19T05:37:41.920Z,98.78
2023-01-19T05:40:44.204Z,99.72
2023-01-19T05:43:46.428Z,98.79
2023-01-19T05:46:48.722Z,98.77
2023-01-19T05:49:50.957Z,98.36
2023-01-19T05:52:53.525Z,98.43
2023-01-19T05:56:03.684Z,97.67
2023-01-19T05:59:13.306Z,97.83
2023-01-19T06:02:15.516Z,97.56
2023-01-19T06:05:17.928Z,97.90
2023-01-19T06:08:20.175Z,97.70
2023-01-19T06:11:22.680Z,96.97
2023-01-19T06:14:25.969Z,97.42
2023-01-19T06:17:28.252Z,97.11
2023-01-19T06:20:30.714Z,97.07
2023-01-19T06:23:34.437Z,96.86
2023-01-19T06:26:37.478Z,97.50
2023-01-19T06:29:39.824Z,96.96
2023-01-19T06:32:42.048Z,97.04
2023-01-19T06:35:45.339Z,97.41
2023-01-19T06:38:47.577Z,97.65
2023-01-19T06:41:52.094Z,97.97
2023-01-19T06:44:57.131Z,97.80
2023-01-19T06:48:06.673Z,97.76
2023-01-19T06:51:12.100Z,97.71
2023-01-19T06:54:21.998Z,97.89
2023-01-19T06:57:28.514Z,97.85
2023-01-19T07:00:36.620Z,98.33
2023-01-19T07:03:38.945Z,98.01
2023-01-19T07:06:42.551Z,98.23
2023-01-19T07:09:48.341Z,98.24
2023-01-19T07:12:51.291Z,97.98
2023-01-19T07:15:53.842Z,97.64
2023-01-19T07:19:00.193Z,97.93
2023-01-19T07:22:08.068Z,97.59
2023-01-19T07:25:18.387Z,97.72
2023-01-19T07:28:21.982Z,97.98
2023-01-19T07:31:24.615Z,98.30
2023-01-19T07:34:26.917Z,97.98
2023-01-19T07:37:34.074Z,97.80
2023-01-19T07:40:44.234Z,97.17
2023-01-19T07:43:52.113Z,97.59
2023-01-19T07:46:54.684Z,97.58
2023-01-19T07:49:57.073Z,97.82
2023-01-19T07:53:06.278Z,97.89
2023-01-19T07:56:09.294Z,97.86
2023-01-19T07:59:14.838Z,97.21
2023-01-19T08:02:17.650Z,96.81
2023-01-19T08:05:22.512Z,96.91
2023-01-19T08:08:26.132Z,96.48
2023-01-19T08:11:28.563Z,96.33
2023-01-19T08:14:31.335Z,96.26
2023-01-19T08:17:34.262Z,96.12
2023-01-19T08:20:36.763Z,96.23
2023-01-19T08:23:41.903Z,96.51
2023-01-19T08:26:44.317Z,96.00
2023-01-19T08:29:46.996Z,95.34
2023-01-19T08:32:54.936Z,94.75
2023-01-19T08:35:57.362Z,95.55
2023-01-19T08:39:01.837Z,95.94
2023-01-19T08:42:05.695Z,95.52
2023-01-19T08:45:11.681Z,95.18
2023-01-19T08:48:16.377Z,95.09
2023-01-19T08:51:19.416Z,94.92
2023-01-19T08:54:30.462Z,94.80
2023-01-19T08:57:32.848Z,95.35
2023-01-19T09:00:42.037Z,95.42
2023-01-19T09:03:55.078Z,95.38
2023-01-19T09:10:07.720Z,95.46
2023-01-19T09:13:12.012Z,94.95
2023-01-19T09:16:16.000Z,95.16
2023-01-19T09:19:21.332Z,95.47
2023-01-19T09:22:23.918Z,95.59
2023-01-19T09:25:29.775Z,94.55
2023-01-19T09:28:32.754Z,95.14
2023-01-19T09:31:35.117Z,95.75
2023-01-19T09:34:37.394Z,96.28
2023-01-19T09:37:46.058Z,96.35
2023-01-19T09:40:54.686Z,95.84
2023-01-19T09:44:03.957Z,96.27
2023-01-19T09:47:20.305Z,95.79
2023-01-19T09:50:42.498Z,96.28
2023-01-19T09:54:08.908Z,96.35
2023-01-19T09:57:15.036Z,95.28
2023-01-19T10:00:20.152Z,95.95
2023-01-19T10:03:27.085Z,95.86
2023-01-19T10:06:29.675Z,94.38
2023-01-19T10:09:44.179Z,93.58
2023-01-19T10:13:02.072Z,93.88
2023-01-19T10:16:44.002Z,94.70
2023-01-19T10:19:52.701Z,94.71
2023-01-19T10:23:01.031Z,94.55
2023-01-19T10:26:09.942Z,94.31
2023-01-19T10:29:30.704Z,94.41
2023-01-19T10:32:39.204Z,95.15
2023-01-19T10:35:41.614Z,95.15
2023-01-19T10:38:44.259Z,94.41
2023-01-19T10:41:53.622Z,94.82
2023-01-19T10:44:56.056Z,94.24
2023-01-19T10:48:06.665Z,94.25
2023-01-19T10:51:11.076Z,94.59
2023-01-19T10:54:16.263Z,94.46
2023-01-19T10:57:46.149Z,93.95
2023-01-19T11:00:48.737Z,94.76
2023-01-19T11:03:53.548Z,94.07
2023-01-19T11:07:21.647Z,94.51
2023-01-19T11:10:31.725Z,93.93
2023-01-19T11:13:39.363Z,92.78
2023-01-19T11:16:50.452Z,93.68
2023-01-19T11:19:56.526Z,92.91
2023-01-19T11:23:07.655Z,93.20
2023-01-19T11:26:25.743Z,91.59
2023-01-19T11:29:28.585Z,91.00
2023-01-19T11:32:37.049Z,91.77
2023-01-19T11:35:41.519Z,91.51
2023-01-19T11:38:46.583Z,92.51
2023-01-19T11:41:52.633Z,92.22
2023-01-19T11:44:58.119Z,92.81
2023-01-19T11:48:04.742Z,93.23
2023-01-19T11:51:22.861Z,93.39
2023-01-19T11:54:38.922Z,92.73
2023-01-19T11:57:56.157Z,92.65
2023-01-19T12:01:24.974Z,92.90
2023-01-19T12:04:41.388Z,92.74
2023-01-19T12:07:45.238Z,93.45
2023-01-19T12:10:52.540Z,93.13
2023-01-19T12:13:54.930Z,92.25
2023-01-19T12:17:03.832Z,91.40
2023-01-19T12:20:39.507Z,89.24
2023-01-19T12:23:51.103Z,87.09
2023-01-19T12:27:13.321Z,85.92
2023-01-19T12:30:20.368Z,88.82
2023-01-19T12:33:33.399Z,88.50
2023-01-19T12:36:37.042Z,90.76
2023-01-19T12:39:49.047Z,91.59
2023-01-19T12:43:03.396Z,92.24
2023-01-19T12:46:28.987Z,93.45
2023-01-19T12:49:44.417Z,92.80
2023-01-19T12:52:57.382Z,93.37
2023-01-19T12:56:01.428Z,93.50
2023-01-19T12:59:05.452Z,93.86
2023-01-19T13:02:42.495Z,93.11
2023-01-19T13:05:44.916Z,93.17
2023-01-19T13:08:53.023Z,93.47
2023-01-19T13:12:30.690Z,93.37
2023-01-19T13:15:36.297Z,93.20
2023-01-19T13:18:41.730Z,93.08
2023-01-19T13:21:46.866Z,93.08
2023-01-19T13:25:08.364Z,92.92
2023-01-19T13:28:13.123Z,93.14
2023-01-19T13:31:16.562Z,92.50
2023-01-19T13:34:21.864Z,93.55
2023-01-19T13:37:38.918Z,93.72
2023-01-19T13:40:41.251Z,95.11
2023-01-19T13:43:44.002Z,93.85
2023-01-19T13:46:47.698Z,94.11
2023-01-19T13:50:01.132Z,94.29
2023-01-19T13:53:04.767Z,93.95
2023-01-19T13:56:09.912Z,93.27
2023-01-19T13:59:13.557Z,94.03
2023-01-19T14:02:16.072Z,94.11
2023-01-19T14:05:32.983Z,93.16
2023-01-19T14:08:35.282Z,93.24
2023-01-19T14:11:38.605Z,92.78
2023-01-19T14:14:46.934Z,92.55
2023-01-19T14:18:28.021Z,93.20
2023-01-19T14:21:44.450Z,92.38
2023-01-19T14:24:46.758Z,92.45
2023-01-19T14:27:49.022Z,92.48
2023-01-19T14:31:01.817Z,92.26
2023-01-19T14:34:04.141Z,92.08
2023-01-19T14:37:21.296Z,92.58
2023-01-19T14:40:24.617Z,92.26
2023-01-19T14:43:28.672Z,92.99
2023-01-19T14:46:33.561Z,91.81
2023-01-19T14:49:38.696Z,92.10
2023-01-19T14:52:42.433Z,91.99
2023-01-19T14:55:46.653Z,92.28
2023-01-19T14:58:49.023Z,92.39
2023-01-19T15:01:51.481Z,92.44
2023-01-19T15:04:55.425Z,91.64
2023-01-19T15:07:57.703Z,91.76
2023-01-19T15:11:21.350Z,92.54
2023-01-19T15:14:23.805Z,91.82
2023-01-19T15:17:26.128Z,91.94
2023-01-19T15:20:28.926Z,92.28
2023-01-19T15:23:32.489Z,91.87
2023-01-19T15:26:36.330Z,91.42
2023-01-19T15:29:40.396Z,91.75
2023-01-19T15:32:43.769Z,92.16
2023-01-19T15:35:46.025Z,92.32
2023-01-19T15:38:50.947Z,91.94
2023-01-19T15:41:53.552Z,91.46
2023-01-19T15:44:55.811Z,91.82
2023-01-19T15:47:58.121Z,91.59
2023-01-19T15:51:00.554Z,91.16
2023-01-19T15:54:02.894Z,91.95
2023-01-19T15:57:05.657Z,92.16
2023-01-19T16:00:09.450Z,93.01
2023-01-19T16:03:14.828Z,92.40
2023-01-19T16:06:17.981Z,92.72
2023-01-19T16:09:20.288Z,92.78
2023-01-19T16:12:22.572Z,92.33
2023-01-19T16:15:25.478Z,92.22
2023-01-19T16:18:27.714Z,92.42
2023-01-19T16:21:29.987Z,93.03
2023-01-19T16:24:32.469Z,92.97
2023-01-19T16:27:34.705Z,92.58
2023-01-19T16:30:36.963Z,93.20
2023-01-19T16:33:39.176Z,93.57
2023-01-19T16:36:42.404Z,92.80
2023-01-19T16:39:51.572Z,93.09
2023-01-19T16:42:53.849Z,93.27
2023-01-19T16:45:59.265Z,92.99
2023-01-19T16:49:22.315Z,92.93
2023-01-19T16:52:26.980Z,93.07
2023-01-19T16:55:29.266Z,93.17
2023-01-19T16:58:31.493Z,93.47
2023-01-19T17:01:33.911Z,93.79
2023-01-19T17:04:36.203Z,93.67
2023-01-19T17:07:38.471Z,93.53
2023-01-19T17:10:42.038Z,93.89
2023-01-19T17:13:44.254Z,93.44
2023-01-19T17:16:46.781Z,93.44
2023-01-19T17:19:49.069Z,93.80
2023-01-19T17:22:51.286Z,93.59
2023-01-19T17:25:55.311Z,94.16
2023-01-19T17:29:08.595Z,93.99
2023-01-19T17:32:10.822Z,93.89
2023-01-19T17:35:19.162Z,94.60
2023-01-19T17:38:21.350Z,93.73
2023-01-19T17:41:35.202Z,93.90
2023-01-19T17:44:37.481Z,93.98
2023-01-19T17:47:39.677Z,93.83
2023-01-19T17:50:42.021Z,93.77
2023-01-19T17:53:47.108Z,93.96
2023-01-19T17:56:50.989Z,93.97
2023-01-19T17:59:53.288Z,93.27
2023-01-19T18:02:55.904Z,93.30
2023-01-19T18:05:58.285Z,92.94
2023-01-19T18:09:00.505Z,92.36
2023-01-19T18:12:06.049Z,93.17
2023-01-19T18:15:09.059Z,92.90
2023-01-19T18:18:11.284Z,92.90
2023-01-19T18:21:14.733Z,92.66
2023-01-19T18:24:16.945Z,92.96
2023-01-19T18:27:20.351Z,93.32
2023-01-19T18:30:22.586Z,93.15
2023-01-19T18:33:28.218Z,93.28
2023-01-19T18:36:32.636Z,93.15
2023-01-19T18:39:35.378Z,93.10
2023-01-19T18:42:37.645Z,92.89
2023-01-19T18:45:41.850Z,93.29
2023-01-19T18:48:44.336Z,93.28
2023-01-19T18:51:46.570Z,93.03
2023-01-19T18:54:48.933Z,93.91
2023-01-19T18:57:51.624Z,93.67
2023-01-19T19:00:54.018Z,93.99
2023-01-19T19:03:57.159Z,94.07
2023-01-19T19:06:59.431Z,93.97
2023-01-19T19:10:01.682Z,94.54
2023-01-19T19:13:04.120Z,94.60
2023-01-19T19:16:08.210Z,94.98
2023-01-19T19:19:11.954Z,94.97
2023-01-19T19:22:14.208Z,95.45
2023-01-19T19:25:16.567Z,95.57
2023-01-19T19:28:18.838Z,95.40
2023-01-19T19:31:22.981Z,95.05
2023-01-19T19:34:25.349Z,94.88
2023-01-19T19:37:28.916Z,95.22
2023-01-19T19:40:31.220Z,94.98
2023-01-19T19:43:34.062Z,95.19
2023-01-19T19:46:36.362Z,94.53
2023-01-19T19:49:38.619Z,94.74
2023-01-19T19:52:41.852Z,94.59
2023-01-19T19:55:44.099Z,94.58
2023-01-19T19:58:46.617Z,94.18
2023-01-19T20:01:50.632Z,94.05
2023-01-19T20:04:52.911Z,93.87
2023-01-19T20:07:55.215Z,93.72
2023-01-19T20:11:06.537Z,93.35
2023-01-19T20:14:11.412Z,92.26
2023-01-19T20:17:13.648Z,92.20
2023-01-19T20:20:16.076Z,92.11
2023-01-19T20:23:18.320Z,91.97
2023-01-19T20:26:25.204Z,90.42
2023-01-19T20:29:27.497Z,90.44
2023-01-19T20:32:30.292Z,90.93
2023-01-19T20:35:32.561Z,90.85
2023-01-19T20:38:34.996Z,90.88
2023-01-19T20:41:43.506Z,90.98
2023-01-19T20:44:45.884Z,91.05
2023-01-19T20:47:48.116Z,91.01
2023-01-19T20:50:50.421Z,90.54
2023-01-19T20:53:52.959Z,90.82
2023-01-19T20:56:55.915Z,90.42
2023-01-19T20:59:58.254Z,89.27
2023-01-19T21:03:00.548Z,89.38
2023-01-19T21:06:02.817Z,89.61
2023-01-19T21:09:05.170Z,90.09
2023-01-19T21:12:09.686Z,89.85
2023-01-19T21:15:12.260Z,88.90
2023-01-19T21:18:14.726Z,89.40
2023-01-19T21:21:29.374Z,90.35
2023-01-19T21:24:32.937Z,90.33
2023-01-19T21:27:35.440Z,90.32
2023-01-19T21:30:37.756Z,90.69
2023-01-19T21:33:40.952Z,88.05
2023-01-19T21:36:44.710Z,88.58
2023-01-19T21:39:46.893Z,89.39
2023-01-19T21:42:49.089Z,89.40
2023-01-19T21:45:51.594Z,89.52
2023-01-19T21:48:53.829Z,89.07
2023-01-19T21:51:56.010Z,88.86
2023-01-19T21:54:58.251Z,89.30
2023-01-19T21:58:00.646Z,89.50
2023-01-19T22:01:05.920Z,90.18
2023-01-19T22:04:08.275Z,91.00
2023-01-19T22:07:10.530Z,91.47
2023-01-19T22:10:12.854Z,92.05
2023-01-19T22:13:15.313Z,91.99
2023-01-19T22:16:19.615Z,92.22
2023-01-19T22:19:21.924Z,92.35
2023-01-19T22:22:24.343Z,92.43
2023-01-19T22:25:28.025Z,91.99
2023-01-19T22:28:30.397Z,91.85
2023-01-19T22:31:32.754Z,91.79
2023-01-19T22:34:35.287Z,91.15
2023-01-19T22:37:37.612Z,91.30
2023-01-19T22:40:39.843Z,90.46
2023-01-19T22:43:42.568Z,89.84
2023-01-19T22:46:44.799Z,89.60
2023-01-19T22:49:47.029Z,88.49
2023-01-19T22:52:49.252Z,89.43
2023-01-19T22:55:51.483Z,89.51
2023-01-19T22:58:54.323Z,89.00
2023-01-19T23:01:56.716Z,89.10
2023-01-19T23:04:59.023Z,89.30
2023-01-19T23:08:01.240Z,88.75
2023-01-19T23:11:09.091Z,88.92
2023-01-19T23:14:17.720Z,89.24
2023-01-19T23:17:19.913Z,89.53
2023-01-19T23:20:22.147Z,89.66
2023-01-19T23:23:24.328Z,89.26
2023-01-19T23:26:27.224Z,89.76
2023-01-19T23:29:29.477Z,89.33
2023-01-19T23:32:31.687Z,89.26
2023-01-19T23:35:34.872Z,89.00
2023-01-19T23:38:37.365Z,89.31
2023-01-19T23:41:39.540Z,89.79
2023-01-19T23:44:43.926Z,90.15
2023-01-19T23:47:46.463Z,90.15
2023-01-19T23:50:48.660Z,90.32
2023-01-19T23:53:51.356Z,89.36
2023-01-19T23:56:53.554Z,89.34
2023-01-19T23:59:55.764Z,89.05
